createdAt,value
2023-02-11T00:03:25.148Z,3.85
2023-02-11T00:18:25.140Z,3.88
2023-02-11T00:33:25.503Z,3.29
2023-02-11T00:48:25.247Z,3.70
2023-02-11T01:03:25.187Z,4.80
2023-02-11T01:18:25.249Z,4.50
2023-02-11T01:33:25.249Z,4.45
2023-02-11T01:48:25.405Z,4.14
2023-02-11T02:03:25.282Z,3.37
2023-02-11T02:18:25.169Z,3.27
2023-02-11T02:33:25.405Z,4.09
2023-02-11T02:48:25.435Z,4.02
2023-02-11T03:03:25.236Z,4.04
2023-02-11T03:18:25.185Z,3.91
2023-02-11T03:33:25.178Z,3.83
2023-02-11T03:48:26.271Z,3.20
2023-02-11T04:03:25.243Z,3.55
2023-02-11T04:18:25.296Z,4.08
2023-02-11T04:33:25.308Z,2.96
2023-02-11T04:48:25.382Z,3.24
2023-02-11T05:03:25.222Z,3.13
2023-02-11T05:18:25.206Z,3.27
2023-02-11T05:33:25.312Z,2.70
2023-02-11T05:48:25.305Z,3.05
2023-02-11T06:03:25.399Z,3.29
2023-02-11T06:18:25.467Z,2.77
2023-02-11T06:33:25.257Z,3.12
2023-02-11T06:48:25.472Z,2.97
2023-02-11T07:03:25.392Z,3.91
2023-02-11T07:18:25.273Z,2.81
2023-02-11T07:33:25.310Z,3.93
2023-02-11T07:48:25.453Z,3.21
2023-02-11T08:03:25.566Z,2.62
2023-02-11T08:18:25.527Z,2.88
2023-02-11T08:33:25.282Z,2.94
2023-02-11T08:48:25.262Z,3.24
2023-02-11T09:03:25.347Z,3.27
2023-02-11T09:18:25.310Z,3.16
2023-02-11T09:33:25.471Z,2.99
2023-02-11T09:48:25.419Z,2.99
2023-02-11T10:03:25.432Z,3.21
2023-02-11T10:18:25.536Z,2.93
2023-02-11T10:33:25.538Z,3.39
2023-02-11T10:48:25.504Z,3.36
2023-02-11T11:03:25.666Z,3.59
2023-02-11T11:18:25.621Z,3.12
2023-02-11T11:33:25.752Z,3.60
2023-02-11T11:48:25.691Z,3.49
2023-02-11T12:03:25.701Z,2.95
2023-02-11T12:18:25.546Z,3.29
2023-02-11T12:33:25.570Z,2.32
2023-02-11T12:48:25.741Z,2.75
2023-02-11T13:03:25.723Z,2.80
2023-02-11T13:18:25.667Z,2.63
2023-02-11T13:33:25.702Z,2.58
2023-02-11T13:48:25.644Z,2.15
2023-02-11T14:03:25.809Z,2.45
2023-02-11T14:18:25.606Z,2.10
2023-02-11T14:33:25.752Z,2.68
2023-02-11T14:48:25.756Z,2.24
2023-02-11T15:03:37.732Z,2.29
2023-02-11T15:18:25.714Z,2.03
2023-02-11T15:33:25.868Z,2.42
2023-02-11T15:48:25.953Z,2.25
2023-02-11T16:03:26.767Z,1.22
2023-02-11T16:18:36.838Z,1.31
2023-02-11T16:33:26.045Z,1.47
2023-02-11T16:48:25.922Z,1.37
2023-02-11T17:03:28.122Z,1.51
2023-02-11T17:18:25.890Z,1.94
2023-02-11T17:33:25.713Z,2.35
2023-02-11T17:48:26.944Z,1.93
2023-02-11T18:03:26.904Z,2.33
2023-02-11T18:18:26.818Z,2.28
2023-02-11T18:33:25.768Z,2.28
2023-02-11T18:48:25.832Z,2.28
2023-02-11T19:03:25.768Z,2.14
2023-02-11T19:18:25.862Z,1.87
2023-02-11T19:33:26.043Z,2.22
2023-02-11T19:48:26.099Z,1.96
2023-02-11T20:03:25.869Z,1.85
2023-02-11T20:18:25.816Z,1.17
2023-02-11T20:33:25.886Z,1.33
2023-02-11T20:48:25.942Z,1.01
2023-02-11T21:03:25.956Z,1.50
2023-02-11T21:18:26.030Z,1.26
2023-02-11T21:33:26.038Z,1.78
2023-02-11T21:48:26.076Z,1.81
2023-02-11T22:03:26.060Z,1.42
2023-02-11T22:18:26.077Z,1.62
2023-02-11T22:33:25.963Z,1.50
2023-02-11T22:48:26.065Z,1.40
2023-02-11T23:03:25.957Z,1.86
2023-02-11T23:18:26.047Z,2.02
2023-02-11T23:33:26.048Z,0.84
2023-02-11T23:48:26.200Z,0.24
